Weather at Mackinac Island Airport

Public forecast

Using degrees Fahrenheit for public forecast. Weather courtesy of forecast.io.

Current aviation weather report (METAR) for Mackinac Island Airport

Retrieved 2021/06/19 06:35 UTC (49 seconds ago):

KMCD 190635Z AUTO 27005KT 10SM CLR 13/09 A2975 RMK AO2 T01320090

Closest aviation forecast (TAF) to Mackinac Island Airport

Closest forecast is Pellston Regional Airport of Emmet County Airport, 18.9 nm (35.0 km) SSW. Retrieved 2021/06/19 06:22 UTC (14 minutes ago):

TAF KPLN 190520Z 1906/2006 VRB03KT P6SM FEW200 FM191600 32008KT P6SM FEW050 FM200000 30006KT P6SM FEW250